sensor_id;sensor_type;location;lat;lon;timestamp;P1;durP1;ratioP1;P2;durP2;ratioP2
26914;SDS011;14480;52.608;13.416;2022-09-24T00:00:20;16.85;;;9.02;;
26914;SDS011;14480;52.608;13.416;2022-09-24T00:05:24;14.93;;;8.13;;
26914;SDS011;14480;52.608;13.416;2022-09-24T00:10:30;9.40;;;6.73;;
26914;SDS011;14480;52.608;13.416;2022-09-24T00:15:40;12.38;;;7.47;;
26914;SDS011;14480;52.608;13.416;2022-09-24T00:20:46;12.60;;;8.38;;
26914;SDS011;14480;52.608;13.416;2022-09-24T00:25:56;12.50;;;8.02;;
26914;SDS011;14480;52.608;13.416;2022-09-24T00:31:17;13.00;;;8.05;;
26914;SDS011;14480;52.608;13.416;2022-09-24T00:36:22;10.18;;;7.18;;
26914;SDS011;14480;52.608;13.416;2022-09-24T00:41:29;10.70;;;7.05;;
26914;SDS011;14480;52.608;13.416;2022-09-24T00:46:36;12.07;;;7.55;;
26914;SDS011;14480;52.608;13.416;2022-09-24T00:51:45;11.60;;;7.35;;
26914;SDS011;14480;52.608;13.416;2022-09-24T00:56:54;12.88;;;7.80;;
26914;SDS011;14480;52.608;13.416;2022-09-24T07:05:49;14.35;;;9.25;;
26914;SDS011;14480;52.608;13.416;2022-09-24T07:15:55;13.40;;;8.65;;
26914;SDS011;14480;52.608;13.416;2022-09-24T07:21:00;10.82;;;7.32;;
26914;SDS011;14480;52.608;13.416;2022-09-24T07:26:04;13.60;;;8.23;;
26914;SDS011;14480;52.608;13.416;2022-09-24T07:31:11;16.58;;;8.70;;
26914;SDS011;14480;52.608;13.416;2022-09-24T07:36:16;12.60;;;9.03;;
26914;SDS011;14480;52.608;13.416;2022-09-24T07:41:20;11.88;;;8.50;;
26914;SDS011;14480;52.608;13.416;2022-09-24T07:46:23;16.13;;;9.23;;
26914;SDS011;14480;52.608;13.416;2022-09-24T07:51:28;13.80;;;8.20;;
26914;SDS011;14480;52.608;13.416;2022-09-24T07:56:32;14.70;;;8.02;;
26914;SDS011;14480;52.608;13.416;2022-09-24T08:01:37;11.38;;;7.97;;
26914;SDS011;14480;52.608;13.416;2022-09-24T08:11:48;14.00;;;8.15;;
26914;SDS011;14480;52.608;13.416;2022-09-24T08:16:55;17.55;;;10.68;;
26914;SDS011;14480;52.608;13.416;2022-09-24T08:22:00;14.15;;;8.73;;
26914;SDS011;14480;52.608;13.416;2022-09-24T08:27:06;14.45;;;8.23;;
26914;SDS011;14480;52.608;13.416;2022-09-24T08:32:16;13.65;;;8.13;;
26914;SDS011;14480;52.608;13.416;2022-09-24T08:37:23;12.02;;;7.80;;
26914;SDS011;14480;52.608;13.416;2022-09-24T08:42:32;18.60;;;9.70;;
26914;SDS011;14480;52.608;13.416;2022-09-24T08:47:57;11.35;;;7.57;;
26914;SDS011;14480;52.608;13.416;2022-09-24T08:53:12;13.95;;;8.77;;
26914;SDS011;14480;52.608;13.416;2022-09-24T08:58:27;11.15;;;8.15;;
26914;SDS011;14480;52.608;13.416;2022-09-24T09:03:44;12.57;;;7.63;;
26914;SDS011;14480;52.608;13.416;2022-09-24T09:09:06;13.35;;;6.40;;
26914;SDS011;14480;52.608;13.416;2022-09-24T09:14:15;12.80;;;8.18;;
26914;SDS011;14480;52.608;13.416;2022-09-24T09:19:25;12.07;;;7.80;;
26914;SDS011;14480;52.608;13.416;2022-09-24T09:24:37;14.90;;;9.10;;
26914;SDS011;14480;52.608;13.416;2022-09-24T09:29:47;12.98;;;8.55;;
26914;SDS011;14480;52.608;13.416;2022-09-24T09:34:57;12.77;;;8.18;;
26914;SDS011;14480;52.608;13.416;2022-09-24T09:40:11;12.25;;;7.32;;
26914;SDS011;14480;52.608;13.416;2022-09-24T09:45:41;15.05;;;8.27;;
26914;SDS011;14480;52.608;13.416;2022-09-24T09:50:57;11.55;;;7.55;;
26914;SDS011;14480;52.608;13.416;2022-09-24T09:56:07;10.60;;;6.78;;
26914;SDS011;14480;52.608;13.416;2022-09-24T10:01:29;11.75;;;7.95;;
26914;SDS011;14480;52.608;13.416;2022-09-24T10:06:36;9.68;;;7.18;;
26914;SDS011;14480;52.608;13.416;2022-09-24T10:11:41;11.93;;;7.43;;
26914;SDS011;14480;52.608;13.416;2022-09-24T10:16:48;12.02;;;6.90;;
26914;SDS011;14480;52.608;13.416;2022-09-24T10:21:58;9.82;;;6.50;;
26914;SDS011;14480;52.608;13.416;2022-09-24T10:27:17;11.35;;;6.75;;
26914;SDS011;14480;52.608;13.416;2022-09-24T10:32:25;8.70;;;6.63;;
26914;SDS011;14480;52.608;13.416;2022-09-24T10:37:31;10.13;;;6.53;;
26914;SDS011;14480;52.608;13.416;2022-09-24T10:42:39;13.48;;;6.18;;
26914;SDS011;14480;52.608;13.416;2022-09-24T10:47:45;10.05;;;6.03;;
26914;SDS011;14480;52.608;13.416;2022-09-24T10:52:56;8.23;;;5.30;;
26914;SDS011;14480;52.608;13.416;2022-09-24T10:58:07;10.52;;;6.72;;
26914;SDS011;14480;52.608;13.416;2022-09-24T11:03:28;8.10;;;5.60;;
26914;SDS011;14480;52.608;13.416;2022-09-24T11:08:50;8.40;;;6.50;;
26914;SDS011;14480;52.608;13.416;2022-09-24T11:14:07;10.05;;;6.25;;
26914;SDS011;14480;52.608;13.416;2022-09-24T11:19:27;8.00;;;5.72;;
26914;SDS011;14480;52.608;13.416;2022-09-24T11:24:47;10.60;;;5.55;;
26914;SDS011;14480;52.608;13.416;2022-09-24T11:30:08;9.27;;;5.43;;
26914;SDS011;14480;52.608;13.416;2022-09-24T11:35:18;11.68;;;5.80;;
26914;SDS011;14480;52.608;13.416;2022-09-24T11:40:39;8.90;;;5.43;;
26914;SDS011;14480;52.608;13.416;2022-09-24T11:45:58;7.88;;;5.47;;
26914;SDS011;14480;52.608;13.416;2022-09-24T11:51:17;11.52;;;6.18;;
26914;SDS011;14480;52.608;13.416;2022-09-24T11:56:30;8.65;;;5.53;;
26914;SDS011;14480;52.608;13.416;2022-09-24T12:01:43;9.98;;;6.00;;
26914;SDS011;14480;52.608;13.416;2022-09-24T12:06:51;10.70;;;6.38;;
26914;SDS011;14480;52.608;13.416;2022-09-24T12:12:02;10.18;;;5.07;;
26914;SDS011;14480;52.608;13.416;2022-09-24T12:17:14;8.93;;;5.47;;
26914;SDS011;14480;52.608;13.416;2022-09-24T12:22:21;8.73;;;5.38;;
26914;SDS011;14480;52.608;13.416;2022-09-24T12:27:28;5.85;;;4.18;;
26914;SDS011;14480;52.608;13.416;2022-09-24T12:32:39;8.65;;;5.07;;
26914;SDS011;14480;52.608;13.416;2022-09-24T12:38:07;7.22;;;4.72;;
26914;SDS011;14480;52.608;13.416;2022-09-24T12:43:17;9.32;;;5.40;;
26914;SDS011;14480;52.608;13.416;2022-09-24T12:48:28;8.10;;;5.00;;
26914;SDS011;14480;52.608;13.416;2022-09-24T12:53:54;6.55;;;4.95;;
26914;SDS011;14480;52.608;13.416;2022-09-24T12:58:59;7.60;;;5.13;;
26914;SDS011;14480;52.608;13.416;2022-09-24T13:04:25;7.97;;;4.80;;
26914;SDS011;14480;52.608;13.416;2022-09-24T13:09:34;9.00;;;4.85;;
26914;SDS011;14480;52.608;13.416;2022-09-24T13:14:39;8.05;;;5.25;;
26914;SDS011;14480;52.608;13.416;2022-09-24T13:19:46;9.15;;;6.07;;
26914;SDS011;14480;52.608;13.416;2022-09-24T13:25:16;9.05;;;5.82;;
26914;SDS011;14480;52.608;13.416;2022-09-24T13:30:39;8.05;;;4.85;;
26914;SDS011;14480;52.608;13.416;2022-09-24T13:35:46;6.57;;;4.60;;
26914;SDS011;14480;52.608;13.416;2022-09-24T13:40:58;9.73;;;4.65;;
26914;SDS011;14480;52.608;13.416;2022-09-24T13:46:09;6.25;;;4.40;;
26914;SDS011;14480;52.608;13.416;2022-09-24T13:51:21;6.80;;;4.68;;
26914;SDS011;14480;52.608;13.416;2022-09-24T13:56:29;8.65;;;4.70;;
26914;SDS011;14480;52.608;13.416;2022-09-24T14:01:35;6.25;;;4.05;;
26914;SDS011;14480;52.608;13.416;2022-09-24T14:06:43;8.30;;;4.03;;
26914;SDS011;14480;52.608;13.416;2022-09-24T14:11:52;8.32;;;5.13;;
26914;SDS011;14480;52.608;13.416;2022-09-24T14:17:07;9.05;;;4.40;;
26914;SDS011;14480;52.608;13.416;2022-09-24T14:27:19;6.38;;;4.85;;
26914;SDS011;14480;52.608;13.416;2022-09-24T14:32:26;5.78;;;4.55;;
26914;SDS011;14480;52.608;13.416;2022-09-24T14:37:34;6.43;;;4.18;;
26914;SDS011;14480;52.608;13.416;2022-09-24T14:42:40;7.63;;;4.32;;
26914;SDS011;14480;52.608;13.416;2022-09-24T14:47:57;9.10;;;5.55;;
26914;SDS011;14480;52.608;13.416;2022-09-24T14:53:09;6.50;;;5.07;;
26914;SDS011;14480;52.608;13.416;2022-09-24T14:58:32;6.72;;;4.60;;
26914;SDS011;14480;52.608;13.416;2022-09-24T15:03:38;9.57;;;4.75;;
26914;SDS011;14480;52.608;13.416;2022-09-24T15:08:51;6.95;;;4.38;;
26914;SDS011;14480;52.608;13.416;2022-09-24T15:14:17;10.23;;;4.80;;
26914;SDS011;14480;52.608;13.416;2022-09-24T15:19:26;8.98;;;6.18;;
26914;SDS011;14480;52.608;13.416;2022-09-24T15:24:33;9.55;;;4.60;;
26914;SDS011;14480;52.608;13.416;2022-09-24T15:29:36;9.55;;;5.90;;
26914;SDS011;14480;52.608;13.416;2022-09-24T15:34:40;8.15;;;5.13;;
26914;SDS011;14480;52.608;13.416;2022-09-24T15:39:45;10.55;;;5.53;;
26914;SDS011;14480;52.608;13.416;2022-09-24T15:44:53;9.38;;;6.50;;
26914;SDS011;14480;52.608;13.416;2022-09-24T15:49:57;13.55;;;9.43;;
26914;SDS011;14480;52.608;13.416;2022-09-24T15:55:05;11.93;;;6.22;;
26914;SDS011;14480;52.608;13.416;2022-09-24T16:00:17;10.88;;;7.45;;
26914;SDS011;14480;52.608;13.416;2022-09-24T16:05:24;21.42;;;15.00;;
26914;SDS011;14480;52.608;13.416;2022-09-24T16:10:29;15.70;;;11.13;;
26914;SDS011;14480;52.608;13.416;2022-09-24T16:15:33;18.95;;;12.55;;
26914;SDS011;14480;52.608;13.416;2022-09-24T16:20:37;16.67;;;11.93;;
26914;SDS011;14480;52.608;13.416;2022-09-24T16:25:52;16.95;;;11.63;;
26914;SDS011;14480;52.608;13.416;2022-09-24T16:30:57;23.83;;;12.15;;
26914;SDS011;14480;52.608;13.416;2022-09-24T16:36:02;21.33;;;12.83;;
26914;SDS011;14480;52.608;13.416;2022-09-24T16:41:08;18.80;;;12.20;;
26914;SDS011;14480;52.608;13.416;2022-09-24T16:46:12;18.48;;;12.13;;
26914;SDS011;14480;52.608;13.416;2022-09-24T16:51:21;21.55;;;15.75;;
26914;SDS011;14480;52.608;13.416;2022-09-24T16:56:27;21.53;;;13.93;;
26914;SDS011;14480;52.608;13.416;2022-09-24T17:01:31;35.53;;;22.48;;
26914;SDS011;14480;52.608;13.416;2022-09-24T17:06:34;21.73;;;13.27;;
26914;SDS011;14480;52.608;13.416;2022-09-24T17:11:40;21.40;;;14.87;;
26914;SDS011;14480;52.608;13.416;2022-09-24T17:16:46;19.40;;;13.40;;
26914;SDS011;14480;52.608;13.416;2022-09-24T17:21:49;18.75;;;12.93;;
26914;SDS011;14480;52.608;13.416;2022-09-24T17:32:01;14.65;;;9.90;;
26914;SDS011;14480;52.608;13.416;2022-09-24T17:37:05;19.23;;;11.85;;
26914;SDS011;14480;52.608;13.416;2022-09-24T17:42:10;18.13;;;12.68;;
26914;SDS011;14480;52.608;13.416;2022-09-24T17:52:19;22.42;;;15.80;;
26914;SDS011;14480;52.608;13.416;2022-09-24T17:57:24;21.02;;;15.15;;
26914;SDS011;14480;52.608;13.416;2022-09-24T18:02:44;24.40;;;17.25;;
26914;SDS011;14480;52.608;13.416;2022-09-24T18:07:47;24.67;;;16.48;;
26914;SDS011;14480;52.608;13.416;2022-09-24T18:13:15;29.92;;;19.90;;
26914;SDS011;14480;52.608;13.416;2022-09-24T18:18:18;28.50;;;20.90;;
26914;SDS011;14480;52.608;13.416;2022-09-24T18:23:22;30.50;;;21.90;;
26914;SDS011;14480;52.608;13.416;2022-09-24T18:28:27;25.65;;;18.42;;
26914;SDS011;14480;52.608;13.416;2022-09-24T18:33:31;24.63;;;18.40;;
26914;SDS011;14480;52.608;13.416;2022-09-24T18:38:34;26.23;;;17.92;;
26914;SDS011;14480;52.608;13.416;2022-09-24T18:43:40;20.87;;;16.37;;
26914;SDS011;14480;52.608;13.416;2022-09-24T18:48:46;20.63;;;15.57;;
26914;SDS011;14480;52.608;13.416;2022-09-24T18:53:51;24.02;;;16.60;;
26914;SDS011;14480;52.608;13.416;2022-09-24T18:58:57;41.90;;;24.00;;
26914;SDS011;14480;52.608;13.416;2022-09-24T19:04:08;37.78;;;23.08;;
26914;SDS011;14480;52.608;13.416;2022-09-24T19:09:14;64.00;;;34.97;;
26914;SDS011;14480;52.608;13.416;2022-09-24T19:14:20;56.05;;;31.63;;
26914;SDS011;14480;52.608;13.416;2022-09-24T19:19:39;48.67;;;27.85;;
26914;SDS011;14480;52.608;13.416;2022-09-24T19:24:55;35.65;;;22.30;;
26914;SDS011;14480;52.608;13.416;2022-09-24T19:30:02;28.25;;;19.77;;
26914;SDS011;14480;52.608;13.416;2022-09-24T19:35:07;26.60;;;19.23;;
26914;SDS011;14480;52.608;13.416;2022-09-24T19:45:19;25.63;;;17.58;;
26914;SDS011;14480;52.608;13.416;2022-09-24T19:50:23;24.25;;;16.88;;
26914;SDS011;14480;52.608;13.416;2022-09-24T19:55:27;22.55;;;13.13;;
26914;SDS011;14480;52.608;13.416;2022-09-24T20:00:32;18.50;;;12.03;;
26914;SDS011;14480;52.608;13.416;2022-09-24T20:05:36;16.88;;;12.10;;
26914;SDS011;14480;52.608;13.416;2022-09-24T20:10:40;14.85;;;10.88;;
26914;SDS011;14480;52.608;13.416;2022-09-24T20:15:51;16.80;;;9.10;;
26914;SDS011;14480;52.608;13.416;2022-09-24T20:21:03;14.82;;;9.77;;
26914;SDS011;14480;52.608;13.416;2022-09-24T20:31:33;12.52;;;9.55;;
26914;SDS011;14480;52.608;13.416;2022-09-24T20:36:37;12.63;;;9.63;;
26914;SDS011;14480;52.608;13.416;2022-09-24T20:41:42;12.37;;;9.63;;
26914;SDS011;14480;52.608;13.416;2022-09-24T20:46:55;13.90;;;10.40;;
26914;SDS011;14480;52.608;13.416;2022-09-24T20:51:59;12.43;;;10.25;;
26914;SDS011;14480;52.608;13.416;2022-09-24T20:57:04;16.98;;;11.68;;
26914;SDS011;14480;52.608;13.416;2022-09-24T21:02:09;16.03;;;12.50;;
26914;SDS011;14480;52.608;13.416;2022-09-24T21:07:13;15.38;;;12.43;;
26914;SDS011;14480;52.608;13.416;2022-09-24T21:12:20;18.02;;;13.07;;
26914;SDS011;14480;52.608;13.416;2022-09-24T21:17:26;15.90;;;12.68;;
26914;SDS011;14480;52.608;13.416;2022-09-24T21:22:30;21.15;;;14.48;;
26914;SDS011;14480;52.608;13.416;2022-09-24T21:27:36;19.85;;;14.50;;
26914;SDS011;14480;52.608;13.416;2022-09-24T21:32:41;18.05;;;15.07;;
26914;SDS011;14480;52.608;13.416;2022-09-24T21:37:46;20.10;;;16.15;;
26914;SDS011;14480;52.608;13.416;2022-09-24T21:47:56;23.67;;;16.45;;
26914;SDS011;14480;52.608;13.416;2022-09-24T21:52:59;20.48;;;15.90;;
26914;SDS011;14480;52.608;13.416;2022-09-24T21:58:03;19.60;;;15.73;;
26914;SDS011;14480;52.608;13.416;2022-09-24T22:03:09;21.87;;;16.10;;
26914;SDS011;14480;52.608;13.416;2022-09-24T22:08:14;20.17;;;15.95;;
26914;SDS011;14480;52.608;13.416;2022-09-24T22:13:20;25.42;;;17.20;;
26914;SDS011;14480;52.608;13.416;2022-09-24T22:18:25;21.30;;;16.10;;
26914;SDS011;14480;52.608;13.416;2022-09-24T22:23:30;24.55;;;17.77;;
26914;SDS011;14480;52.608;13.416;2022-09-24T22:28:35;24.67;;;17.33;;
26914;SDS011;14480;52.608;13.416;2022-09-24T22:33:44;26.80;;;19.17;;
26914;SDS011;14480;52.608;13.416;2022-09-24T22:39:05;24.48;;;17.00;;
26914;SDS011;14480;52.608;13.416;2022-09-24T22:44:09;24.42;;;18.08;;
26914;SDS011;14480;52.608;13.416;2022-09-24T22:49:15;22.45;;;18.02;;
26914;SDS011;14480;52.608;13.416;2022-09-24T22:54:20;21.20;;;16.55;;
26914;SDS011;14480;52.608;13.416;2022-09-24T22:59:25;21.05;;;14.75;;
26914;SDS011;14480;52.608;13.416;2022-09-24T23:04:30;19.38;;;15.32;;
26914;SDS011;14480;52.608;13.416;2022-09-24T23:09:42;24.90;;;17.90;;
26914;SDS011;14480;52.608;13.416;2022-09-24T23:14:48;25.33;;;17.73;;
26914;SDS011;14480;52.608;13.416;2022-09-24T23:19:54;23.27;;;18.20;;
26914;SDS011;14480;52.608;13.416;2022-09-24T23:30:01;22.80;;;16.85;;
26914;SDS011;14480;52.608;13.416;2022-09-24T23:35:07;22.55;;;15.45;;
26914;SDS011;14480;52.608;13.416;2022-09-24T23:40:10;22.83;;;16.50;;
26914;SDS011;14480;52.608;13.416;2022-09-24T23:45:14;21.70;;;15.85;;
26914;SDS011;14480;52.608;13.416;2022-09-24T23:50:19;18.37;;;14.20;;
26914;SDS011;14480;52.608;13.416;2022-09-24T23:55:23;21.20;;;16.13;;
